• Join FlightAware (Why Join?)
  • Login
  • US Flag 
11:01PM EDT


 

Airport Tracker/Info


-or-


 

Live Flight TrackerFlight Track Log ✈ DAL6057 ✈ 08-Sep-2013 ✈ KCMH - KDTW

Flight Track Log - Related Links

Times and Time Zones

All times are in EDT time to prevent confusion due to time zone crossing. See the DAL6057 flight status page for this flight to view local times or setup timezone preferences in your user account.

Time Position Orientation Groundspeed Altitude Reporting Facility
EDT Latitude Longitude Course Direction KTS MPH feet Rate Location/Type
06:38AM 40.0033 -82.9183 262° West 167 192 1,500  Level Indianapolis Center
06:38AM 40.0028 -82.9236 262° West 186 214 1,800 1,980 Climbing Indianapolis Center
06:39AM 40.0039 -82.9833 271° West 188 216 3,700 2,100 Climbing Indianapolis Center
06:40AM 40.0556 -82.9894 355° North 235 270 6,000 2,280 Climbing Indianapolis Center
06:41AM 40.1097 -82.9317 39° Northeast 250 288 8,300 2,280 Climbing Indianapolis Center
06:42AM 40.1703 -82.8650 40° Northeast 281 323 10,600 1,980 Climbing Indianapolis Center
06:43AM 40.2481 -82.8042 31° Northeast 305 351 12,300 1,800 Climbing Indianapolis Center
06:44AM 40.3294 -82.7583 23° Northeast 316 364 14,300 1,680 Climbing Indianapolis Center
06:45AM 40.4136 -82.7097 24° Northeast 325 374 15,700 1,260 Climbing Indianapolis Center
06:46AM 40.5011 -82.6606 23° Northeast 336 387 16,900 600 Climbing Indianapolis Center
06:47AM 40.5889 -82.6106 23° Northeast 339 390 17,000  Climbing Indianapolis Center
06:48AM 40.6767 -82.5589 24° Northeast 341 392 17,000  Level Indianapolis Center
06:49AM 40.7664 -82.5247 16° North 338 389 17,000  Level Indianapolis Center
06:50AM 40.8561 -82.5667 341° North 335 386 17,000  Level Indianapolis Center
06:51AM 40.9289 -82.6114 335° Northwest 320 368 17,000  Level Cleveland Center
06:52AM 41.0156 -82.6608 337° Northwest 335 386 17,000  Level Cleveland Center
06:53AM 41.1022 -82.7106 337° Northwest 335 386 17,000  Level Cleveland Center
06:54AM 41.1950 -82.7658 336° Northwest 335 386 17,000  Level Cleveland Center
06:55AM 41.2817 -82.8131 338° Northwest 335 386 17,000 -60 Level Cleveland Center
06:56AM 41.3703 -82.8631 337° Northwest 335 386 16,900 -780 Descending Cleveland Center
06:57AM 41.4361 -82.9014 336° Northwest 335 386 15,700 -1,620 Descending Cleveland Center
06:57AM 41.4567 -82.9133 336° Northwest 335 386 15,300 -1,800 Descending Cleveland Center
06:58AM 41.4814 -82.9281 336° Northwest 333 383 14,800 -1,620 Descending Cleveland Center
06:58AM 41.5372 -82.9606 336° Northwest 324 373 13,700 -1,500 Descending Cleveland Center
06:59AM 41.5597 -82.9753 334° Northwest 311 358 13,300 -1,440 Descending Cleveland Center
06:59AM 41.6133 -83.0050 337° Northwest 306 352 12,300 -1,440 Descending Cleveland Center
07:00AM 41.6297 -83.0167 332° Northwest 298 343 12,000 -1,200 Descending Cleveland Center
07:00AM 41.6875 -83.0494 337° Northwest 296 341 11,100 -900 Descending Cleveland Center
07:01AM 41.7039 -83.0614 331° Northwest 280 322 11,100 -120 Level Cleveland Center
07:01AM 41.7517 -83.0714 351° North 275 316 11,000 -120 Descending Cleveland Center
07:02AM 41.7683 -83.0664 13° North 228 262 11,000 -540 Level Cleveland Center
07:02AM 41.8164 -83.0600 North 240 276 10,500 -840 Descending Cleveland Center
07:03AM 41.8353 -83.0581 North 234 269 10,200 -1,140 Descending Cleveland Center
07:03AM 41.8725 -83.0761 340° North 222 255 9,400 -1,320 Descending Cleveland Center
07:04AM 41.8717 -83.1039 268° West 229 264 8,900 -1,620 Descending Cleveland Center
07:04AM 41.8831 -83.1631 285° West 176 203 7,800 -1,620 Descending Cleveland Center
07:05AM 41.8844 -83.1911 274° West 234 269 7,300 -1,440 Descending Cleveland Center
07:05AM 41.8997 -83.2475 290° West 205 236 6,400 -1,320 Descending Cleveland Center
07:06AM 41.9075 -83.2728 292° West 228 262 6,000 -1,440 Descending Cleveland Center
07:06AM 41.9231 -83.3264 291° West 224 258 5,000 -1,380 Descending Cleveland Center
07:07AM 41.9308 -83.3492 295° West 223 257 4,600 -720 Descending Cleveland Center
07:08AM 41.9539 -83.4283 291° West 223 257 4,100 -480 Descending Cleveland Center
07:09AM 41.9942 -83.4861 313° West 180 207 3,700 -540 Descending Cleveland Center
07:10AM 42.0425 -83.4631 20° North 165 190 3,000 -360 Descending Cleveland Center
07:11AM 42.0850 -83.4369 25° Northeast 166 191 3,000 -360 Level Cleveland Center
07:12AM 42.1233 -83.4081 29° Northeast 129 148 2,300 -720 Descending Cleveland Center
07:13AM 42.1553 -83.3814 32° Northeast 122 140 1,600 -660 Descending Cleveland Center
07:14AM 42.1828 -83.3631 26° Northeast 125 144 1,000 -600 Descending Cleveland Center
07:16AM 42.2000 -83.3500 14° North  Level FlightAware Approximate